createdAt,value
2023-01-10T00:55:35.796Z,22.88
2023-01-10T00:56:36.756Z,22.90
2023-01-10T00:57:36.742Z,22.90
2023-01-10T00:58:36.725Z,22.88
2023-01-10T00:59:36.720Z,22.88
2023-01-10T01:00:36.714Z,22.90
2023-01-10T01:01:36.881Z,22.87
2023-01-10T01:02:36.763Z,22.87
2023-01-10T01:03:36.687Z,22.87
2023-01-10T01:04:36.680Z,22.88
2023-01-10T01:05:36.663Z,22.87
2023-01-10T01:06:36.655Z,22.87
2023-01-10T01:07:36.641Z,22.88
2023-01-10T01:08:36.642Z,22.88
2023-01-10T01:09:36.628Z,22.87
2023-01-10T01:10:36.615Z,22.88
2023-01-10T01:11:36.629Z,22.87
2023-01-10T01:12:36.592Z,22.87
2023-01-10T01:13:36.589Z,22.83
2023-01-10T01:14:36.577Z,22.83
2023-01-10T01:15:36.585Z,22.83
2023-01-10T01:16:36.587Z,22.83
2023-01-10T01:17:36.551Z,22.81
2023-01-10T01:18:36.552Z,22.83
2023-01-10T01:19:36.530Z,22.84
2023-01-10T01:20:36.517Z,22.83
2023-01-10T01:21:36.509Z,22.83
2023-01-10T01:22:36.505Z,22.83
2023-01-10T01:23:36.490Z,22.85
2023-01-10T01:24:36.485Z,22.85
2023-01-10T01:25:36.472Z,22.84
2023-01-10T01:26:36.462Z,22.81
2023-01-10T01:27:36.477Z,22.83
2023-01-10T01:28:36.443Z,22.85
2023-01-10T01:29:42.939Z,22.85
2023-01-10T01:30:36.422Z,22.84
2023-01-10T01:31:36.413Z,22.85
2023-01-10T01:32:36.405Z,22.84
2023-01-10T01:33:36.392Z,22.88
2023-01-10T01:34:36.387Z,22.87
2023-01-10T01:35:36.377Z,22.84
2023-01-10T01:36:36.376Z,22.85
2023-01-10T01:37:36.356Z,22.88
2023-01-10T01:38:36.351Z,22.85
2023-01-10T01:39:36.337Z,22.87
2023-01-10T01:40:36.331Z,22.85
2023-01-10T01:41:36.318Z,22.85
2023-01-10T01:42:36.313Z,22.85
2023-01-10T01:43:36.326Z,22.85
2023-01-10T01:44:36.306Z,22.87
2023-01-10T01:45:36.293Z,22.83
2023-01-10T01:46:36.364Z,22.87
2023-01-10T01:47:36.266Z,22.84
2023-01-10T01:48:36.255Z,22.83
2023-01-10T01:49:36.244Z,22.87
2023-01-10T01:50:36.242Z,22.83
2023-01-10T01:51:36.226Z,22.83
2023-01-10T01:52:36.219Z,22.83
2023-01-10T01:53:36.216Z,22.79
2023-01-10T01:54:36.197Z,22.81
2023-01-10T01:55:36.191Z,22.81
2023-01-10T01:56:36.179Z,22.83
2023-01-10T01:57:36.184Z,22.83
2023-01-10T01:58:36.158Z,22.83
2023-01-10T01:59:36.186Z,22.81
2023-01-10T02:00:36.188Z,22.84
2023-01-10T02:01:36.284Z,22.84
2023-01-10T02:02:36.154Z,22.79
2023-01-10T02:03:36.145Z,22.81
2023-01-10T02:04:36.124Z,22.81
2023-01-10T02:05:36.103Z,22.81
2023-01-10T02:06:36.094Z,22.79
2023-01-10T02:07:36.076Z,22.79
2023-01-10T02:08:36.063Z,22.83
2023-01-10T02:09:36.054Z,22.81
2023-01-10T02:10:36.044Z,22.83
2023-01-10T02:11:36.035Z,22.81
2023-01-10T02:12:36.029Z,22.83
2023-01-10T02:13:36.017Z,22.81
2023-01-10T02:14:36.011Z,22.83
2023-01-10T02:15:36.088Z,22.83
2023-01-10T02:16:35.988Z,22.84
2023-01-10T02:17:35.982Z,22.83
2023-01-10T02:18:35.974Z,22.83
2023-01-10T02:19:35.962Z,22.81
2023-01-10T02:20:35.951Z,22.79
2023-01-10T02:21:35.988Z,22.81
2023-01-10T02:22:35.934Z,22.83
2023-01-10T02:23:35.923Z,22.81
2023-01-10T02:24:35.914Z,22.81
2023-01-10T02:25:35.911Z,22.83
2023-01-10T02:26:35.899Z,22.81
2023-01-10T02:27:35.889Z,22.79
2023-01-10T02:28:35.886Z,22.83
2023-01-10T02:29:35.888Z,22.84
2023-01-10T02:30:35.878Z,22.79
2023-01-10T02:31:36.007Z,22.83
2023-01-10T02:32:45.945Z,22.83
2023-01-10T02:33:35.829Z,22.83
2023-01-10T02:34:35.845Z,22.83
2023-01-10T02:35:35.817Z,22.84
2023-01-10T02:36:35.798Z,22.81
2023-01-10T02:37:35.795Z,22.79
2023-01-10T02:38:35.781Z,22.84
2023-01-10T02:39:35.775Z,22.83
2023-01-10T02:40:35.768Z,22.81
2023-01-10T02:41:35.757Z,22.83
2023-01-10T02:42:35.750Z,22.84
2023-01-10T02:43:35.750Z,22.81
2023-01-10T02:44:35.725Z,22.83
2023-01-10T02:45:35.715Z,22.79
2023-01-10T02:46:35.767Z,22.84
2023-01-10T02:47:35.721Z,22.83
2023-01-10T02:48:35.689Z,22.85
2023-01-10T02:49:35.685Z,22.84
2023-01-10T02:50:35.676Z,22.84
2023-01-10T02:51:35.667Z,22.84
2023-01-10T02:52:35.658Z,22.84
2023-01-10T02:53:35.647Z,22.83
2023-01-10T02:54:35.631Z,22.81
2023-01-10T02:55:35.630Z,22.85
2023-01-10T02:56:35.619Z,22.81
2023-01-10T02:57:35.605Z,22.83
2023-01-10T02:58:35.590Z,22.84
2023-01-10T02:59:35.596Z,22.83
2023-01-10T03:00:35.574Z,22.84
2023-01-10T03:01:35.688Z,22.84
2023-01-10T03:02:35.554Z,22.81
2023-01-10T03:03:35.666Z,22.83
2023-01-10T03:04:35.599Z,22.83
2023-01-10T03:05:35.526Z,22.83
2023-01-10T03:06:35.538Z,22.83
2023-01-10T03:07:35.528Z,22.84
2023-01-10T03:08:35.516Z,22.81
2023-01-10T03:09:35.503Z,22.79
2023-01-10T03:10:35.529Z,22.79
2023-01-10T03:11:35.513Z,22.81
2023-01-10T03:12:35.464Z,22.79
2023-01-10T03:13:35.460Z,22.81
2023-01-10T03:14:35.469Z,22.77
2023-01-10T03:15:35.436Z,22.83
2023-01-10T03:16:35.425Z,22.83
2023-01-10T03:17:35.422Z,22.81
2023-01-10T03:18:35.408Z,22.83
2023-01-10T03:19:35.423Z,22.83
2023-01-10T03:20:35.401Z,22.79
2023-01-10T03:21:35.391Z,22.84
2023-01-10T03:22:35.379Z,22.84
2023-01-10T03:23:35.364Z,22.81
2023-01-10T03:24:35.352Z,22.83
2023-01-10T03:25:35.349Z,22.83
2023-01-10T03:26:35.351Z,22.81
2023-01-10T03:27:35.325Z,22.83
2023-01-10T03:28:35.325Z,22.84
2023-01-10T03:29:35.311Z,22.83
2023-01-10T03:30:35.297Z,22.81
2023-01-10T03:31:35.302Z,22.79
2023-01-10T03:32:35.282Z,22.81
2023-01-10T03:33:35.268Z,22.81
2023-01-10T03:34:35.344Z,22.81
2023-01-10T03:35:35.291Z,22.81
2023-01-10T03:36:35.250Z,22.84
2023-01-10T03:37:35.229Z,22.78
2023-01-10T03:38:35.232Z,22.81
2023-01-10T03:39:35.208Z,22.79
2023-01-10T03:40:35.203Z,22.79
2023-01-10T03:41:35.210Z,22.79
2023-01-10T03:42:35.193Z,22.83
2023-01-10T03:43:35.175Z,22.78
2023-01-10T03:44:35.199Z,22.81
2023-01-10T03:45:35.157Z,22.81
2023-01-10T03:46:35.209Z,22.79
2023-01-10T03:47:35.141Z,22.81
2023-01-10T03:48:35.131Z,22.81
2023-01-10T03:49:35.118Z,22.79
2023-01-10T03:50:35.117Z,22.84
2023-01-10T03:51:35.126Z,22.81
2023-01-10T03:52:35.146Z,22.81
2023-01-10T03:53:35.083Z,22.81
2023-01-10T03:54:35.092Z,22.83
2023-01-10T03:55:35.080Z,22.79
2023-01-10T03:56:35.056Z,22.79
2023-01-10T03:57:35.047Z,22.81
2023-01-10T03:58:35.043Z,22.79
2023-01-10T03:59:35.034Z,22.79
2023-01-10T04:00:35.020Z,22.79
2023-01-10T04:01:35.082Z,22.81
2023-01-10T04:02:35.001Z,22.81
2023-01-10T04:03:34.988Z,22.83
2023-01-10T04:04:34.979Z,22.81
2023-01-10T04:05:34.968Z,22.81
2023-01-10T04:06:34.959Z,22.79
2023-01-10T04:07:34.978Z,22.83
2023-01-10T04:08:34.945Z,22.81
2023-01-10T04:09:34.933Z,22.83
2023-01-10T04:10:34.925Z,22.83
2023-01-10T04:11:34.912Z,22.81
2023-01-10T04:12:34.907Z,22.81
2023-01-10T04:13:34.898Z,22.81
2023-01-10T04:14:34.884Z,22.81
2023-01-10T04:15:34.880Z,22.81
2023-01-10T04:16:34.920Z,22.83
2023-01-10T04:17:34.862Z,22.81
2023-01-10T04:18:34.848Z,22.79
2023-01-10T04:19:34.842Z,22.77
2023-01-10T04:20:34.831Z,22.74
2023-01-10T04:21:34.820Z,22.72
2023-01-10T04:22:34.810Z,22.71
2023-01-10T04:23:34.835Z,22.68
2023-01-10T04:24:34.798Z,22.66
2023-01-10T04:25:34.780Z,22.63
2023-01-10T04:26:34.775Z,22.61
2023-01-10T04:27:34.773Z,22.54
2023-01-10T04:28:34.764Z,22.53
2023-01-10T04:29:34.755Z,22.49
2023-01-10T04:30:34.733Z,22.46
2023-01-10T04:31:34.863Z,22.46
2023-01-10T04:32:34.725Z,22.44
2023-01-10T04:33:34.712Z,22.43
2023-01-10T04:34:34.694Z,22.43
2023-01-10T04:35:34.689Z,22.40
2023-01-10T04:36:34.678Z,22.39
2023-01-10T04:37:34.681Z,22.40
2023-01-10T04:39:34.686Z,22.36
2023-01-10T04:40:34.639Z,22.35
2023-01-10T04:41:34.627Z,22.33
2023-01-10T04:42:34.633Z,22.32
2023-01-10T04:43:34.619Z,22.32
2023-01-10T04:44:34.606Z,22.35
2023-01-10T04:45:34.654Z,22.33
2023-01-10T04:46:34.580Z,22.35
2023-01-10T04:47:34.573Z,22.35
2023-01-10T04:48:34.567Z,22.36
2023-01-10T04:49:34.554Z,22.38
2023-01-10T04:50:34.541Z,22.36
2023-01-10T04:51:34.547Z,22.35
2023-01-10T04:52:34.522Z,22.36
2023-01-10T04:53:34.527Z,22.36
2023-01-10T04:54:34.506Z,22.36
2023-01-10T04:55:34.576Z,22.35
2023-01-10T04:56:34.486Z,22.36
2023-01-10T04:57:34.482Z,22.36
2023-01-10T04:58:34.471Z,22.38
2023-01-10T04:59:34.457Z,22.38
2023-01-10T05:00:34.459Z,22.38
2023-01-10T05:01:34.434Z,22.36
2023-01-10T05:02:34.530Z,22.38
2023-01-10T05:03:34.440Z,22.38
2023-01-10T05:04:34.406Z,22.36
2023-01-10T05:05:34.553Z,22.38
2023-01-10T05:06:34.392Z,22.38
2023-01-10T05:07:34.378Z,22.38
2023-01-10T05:08:34.370Z,22.42
2023-01-10T05:09:34.364Z,22.40
2023-01-10T05:10:34.364Z,22.44
2023-01-10T05:11:34.365Z,22.43
2023-01-10T05:12:34.334Z,22.44
2023-01-10T05:13:34.324Z,22.46
2023-01-10T05:14:34.318Z,22.44
2023-01-10T05:15:34.395Z,22.47
2023-01-10T05:16:34.354Z,22.44
2023-01-10T05:17:34.288Z,22.46
2023-01-10T05:18:34.281Z,22.47
2023-01-10T05:19:34.262Z,22.49
2023-01-10T05:20:34.265Z,22.51
2023-01-10T05:21:34.249Z,22.51
2023-01-10T05:22:34.232Z,22.51
2023-01-10T05:23:34.232Z,22.54
2023-01-10T05:24:34.237Z,22.51
2023-01-10T05:25:34.309Z,22.51
2023-01-10T05:26:34.208Z,22.50
2023-01-10T05:27:34.221Z,22.51
2023-01-10T05:28:34.196Z,22.51
2023-01-10T05:29:34.172Z,22.53
2023-01-10T05:30:34.177Z,22.53
2023-01-10T05:31:34.203Z,22.53
2023-01-10T05:32:34.141Z,22.53
2023-01-10T05:33:34.136Z,22.53
2023-01-10T05:34:34.118Z,22.54
2023-01-10T05:35:34.105Z,22.51
2023-01-10T05:36:34.100Z,22.54
2023-01-10T05:37:34.091Z,22.53
2023-01-10T05:38:34.189Z,22.53
2023-01-10T05:39:34.072Z,22.53
2023-01-10T05:40:34.062Z,22.53
2023-01-10T05:41:34.052Z,22.56
2023-01-10T05:42:34.043Z,22.53
2023-01-10T05:43:34.062Z,22.53
2023-01-10T05:44:34.028Z,22.54
2023-01-10T05:45:34.124Z,22.56
2023-01-10T05:46:34.012Z,22.54
2023-01-10T05:47:34.003Z,22.53
2023-01-10T05:48:33.989Z,22.56
2023-01-10T05:49:34.320Z,22.56
2023-01-10T05:50:33.969Z,22.57
2023-01-10T05:51:33.962Z,22.56
2023-01-10T05:52:33.958Z,22.57
2023-01-10T05:53:33.969Z,22.56
2023-01-10T05:54:33.930Z,22.54
2023-01-10T05:55:33.981Z,22.54
2023-01-10T05:56:33.921Z,22.54
2023-01-10T05:57:33.909Z,22.54
2023-01-10T05:58:33.902Z,22.57
2023-01-10T05:59:33.913Z,22.57
2023-01-10T06:00:33.871Z,22.58
2023-01-10T06:01:33.945Z,22.58
2023-01-10T06:02:34.025Z,22.58
2023-01-10T06:03:33.849Z,22.60
2023-01-10T06:04:33.850Z,22.58
2023-01-10T06:05:33.833Z,22.60
2023-01-10T06:06:33.817Z,22.61
2023-01-10T06:20:33.921Z,22.56
2023-01-10T06:21:33.913Z,22.56
2023-01-10T06:25:33.898Z,22.54
2023-01-10T06:30:33.911Z,22.53
2023-01-10T06:37:33.936Z,22.47
2023-01-10T06:42:33.928Z,22.50
2023-01-10T06:47:33.939Z,22.56
2023-01-10T07:41:33.911Z,23.54
2023-01-10T09:41:31.975Z,23.98
2023-01-10T09:42:31.920Z,24.02
2023-01-10T09:43:32.040Z,24.01
2023-01-10T09:46:32.013Z,24.04
2023-01-10T09:48:31.935Z,24.05
2023-01-10T09:50:31.886Z,24.02
2023-01-10T09:51:31.881Z,24.02
2023-01-10T09:52:31.851Z,24.04
2023-01-10T09:53:31.853Z,24.01
2023-01-10T09:54:32.002Z,24.04
2023-01-10T09:56:31.824Z,24.04
2023-01-10T09:57:31.874Z,24.02
2023-01-10T09:58:31.891Z,24.04
2023-01-10T10:00:32.957Z,24.07
2023-01-10T10:02:31.921Z,24.07
2023-01-10T10:03:31.978Z,24.08
2023-01-10T10:04:32.196Z,24.07
2023-01-10T10:05:31.835Z,24.08
2023-01-10T10:07:31.857Z,24.12
2023-01-10T10:10:32.113Z,24.16
2023-01-10T10:12:31.798Z,24.18
2023-01-10T10:13:31.870Z,24.18
2023-01-10T10:14:31.755Z,24.16
2023-01-10T10:15:32.048Z,24.16
2023-01-10T10:16:31.661Z,24.18
2023-01-10T10:17:31.617Z,24.19
2023-01-10T10:18:31.633Z,24.19
2023-01-10T10:19:31.618Z,24.18
2023-01-10T10:20:32.003Z,24.16
2023-01-10T10:21:31.659Z,24.16
2023-01-10T10:22:31.562Z,24.16
2023-01-10T10:23:34.000Z,24.16
2023-01-10T10:24:31.553Z,24.15
2023-01-10T10:25:32.023Z,24.18
2023-01-10T10:26:32.563Z,24.16
2023-01-10T10:27:31.723Z,24.14
2023-01-10T10:28:32.003Z,24.16
2023-01-10T10:29:31.528Z,24.19
2023-01-10T10:30:32.029Z,24.21
2023-01-10T10:31:31.818Z,24.22
2023-01-10T10:32:31.698Z,24.21
2023-01-10T10:33:31.513Z,24.21
2023-01-10T10:34:31.516Z,24.19
2023-01-10T10:35:31.660Z,24.18
2023-01-10T10:36:31.464Z,24.14
2023-01-10T10:37:31.429Z,24.11
2023-01-10T10:38:31.849Z,24.07
2023-01-10T10:39:31.440Z,24.04
2023-01-10T10:41:31.403Z,23.95
2023-01-10T10:42:34.985Z,23.97
2023-01-10T10:43:31.486Z,23.91
2023-01-10T10:44:31.407Z,23.91
2023-01-10T10:45:32.560Z,23.87
2023-01-10T10:46:31.411Z,23.87
2023-01-10T10:47:31.586Z,23.84
2023-01-10T10:48:31.988Z,23.83
2023-01-10T10:49:31.323Z,23.78
2023-01-10T10:50:31.303Z,23.80
2023-01-10T10:51:31.300Z,23.76
2023-01-10T10:52:31.506Z,23.74
2023-01-10T10:53:31.273Z,23.74
2023-01-10T10:54:31.267Z,23.71
2023-01-10T10:55:31.300Z,23.67
2023-01-10T10:56:31.247Z,23.70
2023-01-10T10:57:31.236Z,23.67
2023-01-10T10:58:31.225Z,23.67
2023-01-10T10:59:31.226Z,23.66
2023-01-10T11:00:31.225Z,23.67
2023-01-10T11:01:31.653Z,23.63
2023-01-10T11:02:31.189Z,23.64
2023-01-10T11:03:31.209Z,23.63
2023-01-10T11:04:31.205Z,23.63
2023-01-10T11:05:31.161Z,23.61
2023-01-10T11:07:38.550Z,23.59
2023-01-10T11:08:31.169Z,23.60
2023-01-10T11:09:31.177Z,23.59
2023-01-10T11:10:31.124Z,23.60
2023-01-10T11:11:31.127Z,23.61
2023-01-10T11:12:31.100Z,23.57
2023-01-10T11:13:31.103Z,23.56
2023-01-10T11:14:31.076Z,23.56
2023-01-10T11:15:31.065Z,23.57
2023-01-10T11:16:31.207Z,23.56
2023-01-10T11:17:31.058Z,23.59
2023-01-10T11:18:31.061Z,23.57
2023-01-10T11:19:31.060Z,23.56
2023-01-10T11:20:31.563Z,23.56
2023-01-10T11:21:31.017Z,23.56
2023-01-10T11:22:31.004Z,23.56
2023-01-10T11:23:30.995Z,23.54
2023-01-10T11:24:30.992Z,23.54
2023-01-10T11:25:31.011Z,23.54
2023-01-10T11:26:30.980Z,23.54
2023-01-10T11:27:30.957Z,23.56
2023-01-10T11:28:30.955Z,23.52
2023-01-10T11:29:30.937Z,23.53
2023-01-10T11:30:31.005Z,23.53
2023-01-10T11:31:31.091Z,23.52
2023-01-10T11:32:30.917Z,23.54
2023-01-10T11:33:31.035Z,23.54
2023-01-10T11:34:30.919Z,23.53
2023-01-10T11:35:30.909Z,23.50
2023-01-10T11:36:30.872Z,23.52
2023-01-10T11:38:31.880Z,23.50
2023-01-10T11:39:30.857Z,23.50
2023-01-10T11:40:30.855Z,23.52
2023-01-10T11:41:30.840Z,23.49
2023-01-10T11:42:30.833Z,23.52
2023-01-10T11:43:30.823Z,23.52
2023-01-10T11:44:31.024Z,23.50
2023-01-10T11:45:30.805Z,23.52
2023-01-10T11:46:30.797Z,23.52
2023-01-10T11:47:32.385Z,23.50
2023-01-10T11:48:59.767Z,23.50
2023-01-10T11:49:30.764Z,23.50
2023-01-10T11:50:30.747Z,23.49
2023-01-10T11:51:30.768Z,23.52
2023-01-10T11:52:31.043Z,23.52
2023-01-10T11:53:30.723Z,23.52
2023-01-10T11:54:30.710Z,23.50
2023-01-10T11:55:30.708Z,23.53
2023-01-10T11:56:30.688Z,23.52
2023-01-10T11:57:31.015Z,23.50
2023-01-10T11:58:30.666Z,23.52
2023-01-10T11:59:30.656Z,23.52
2023-01-10T12:00:30.649Z,23.50
2023-01-10T12:01:30.748Z,23.52
2023-01-10T12:02:31.070Z,23.49
2023-01-10T12:03:30.631Z,23.49
2023-01-10T12:04:30.610Z,23.53
2023-01-10T12:05:30.675Z,23.52
2023-01-10T12:06:30.633Z,23.52
2023-01-10T12:07:31.043Z,23.53
2023-01-10T12:08:30.590Z,23.52
2023-01-10T12:09:31.024Z,23.54
2023-01-10T12:10:30.558Z,23.53
2023-01-10T12:11:30.546Z,23.53
2023-01-10T12:12:31.104Z,23.56
2023-01-10T12:13:30.525Z,23.50
2023-01-10T12:14:30.523Z,23.46
2023-01-10T12:15:30.511Z,23.33
2023-01-10T12:16:30.598Z,23.18
2023-01-10T12:17:30.529Z,23.04
2023-01-10T12:18:30.480Z,22.90
2023-01-10T12:19:30.479Z,22.64
2023-01-10T12:20:30.461Z,22.42
2023-01-10T12:21:30.452Z,22.22
2023-01-10T12:22:30.548Z,22.01
2023-01-10T12:23:30.501Z,21.60
2023-01-10T12:24:30.443Z,21.31
2023-01-10T12:25:30.428Z,21.13
2023-01-10T12:26:30.413Z,21.01
2023-01-10T12:27:30.565Z,20.96
2023-01-10T12:28:30.397Z,20.93
2023-01-10T12:29:30.388Z,20.89
2023-01-10T12:30:30.480Z,20.89
2023-01-10T12:31:30.523Z,20.85
2023-01-10T12:32:30.352Z,20.86
2023-01-10T12:33:30.535Z,20.81
2023-01-10T12:34:30.344Z,20.79
2023-01-10T12:35:30.339Z,20.84
2023-01-10T12:36:30.320Z,20.91
2023-01-10T12:37:30.306Z,21.03
2023-01-10T12:38:30.526Z,21.19
2023-01-10T12:39:30.313Z,21.33
2023-01-10T12:40:30.297Z,21.46
2023-01-10T12:41:30.271Z,21.61
2023-01-10T12:42:30.283Z,21.73
2023-01-10T12:43:30.530Z,21.85
2023-01-10T12:44:30.253Z,21.96
2023-01-10T12:45:30.243Z,22.05
2023-01-10T12:47:04.207Z,22.16
2023-01-10T12:47:30.514Z,22.26
2023-01-10T12:48:30.551Z,22.33
2023-01-10T12:49:30.202Z,22.43
2023-01-10T12:50:30.182Z,22.46
2023-01-10T12:51:30.225Z,22.54
2023-01-10T12:52:30.238Z,22.58
2023-01-10T12:53:30.546Z,22.63
2023-01-10T12:54:30.151Z,22.68
2023-01-10T12:55:30.171Z,22.68
2023-01-10T13:08:30.536Z,22.91
2023-01-10T13:13:30.075Z,22.99
2023-01-10T13:19:30.058Z,23.02
2023-01-10T14:17:29.358Z,23.02
2023-01-10T14:43:29.119Z,23.04
2023-01-10T14:44:29.102Z,23.05
2023-01-10T14:45:30.066Z,23.08
2023-01-10T14:47:29.136Z,23.13
2023-01-10T14:48:29.189Z,23.16
2023-01-10T14:49:29.048Z,23.16
2023-01-10T14:50:29.076Z,23.13
2023-01-10T14:51:29.081Z,23.13
2023-01-10T14:52:29.036Z,23.11
2023-01-10T14:53:29.026Z,23.11
2023-01-10T14:54:29.001Z,23.11
2023-01-10T14:55:29.000Z,23.08
2023-01-10T14:56:28.987Z,23.05
2023-01-10T14:57:28.972Z,23.08
2023-01-10T14:58:28.966Z,23.08
2023-01-10T14:59:28.956Z,23.06
2023-01-10T15:00:28.964Z,23.06
2023-01-10T15:01:29.122Z,23.06
2023-01-10T15:02:28.931Z,23.06
2023-01-10T15:03:28.944Z,23.04
2023-01-10T15:04:28.949Z,23.04
2023-01-10T15:05:29.109Z,23.04
2023-01-10T15:06:28.893Z,23.01
2023-01-10T15:07:28.898Z,23.01
2023-01-10T15:08:28.901Z,23.01
2023-01-10T15:09:28.866Z,22.99
2023-01-10T15:10:28.865Z,22.97
2023-01-10T15:11:28.849Z,22.98
2023-01-10T15:12:28.829Z,22.98
2023-01-10T15:13:28.817Z,23.01
2023-01-10T15:14:28.817Z,22.99
2023-01-10T15:15:28.810Z,23.04
2023-01-10T15:16:28.854Z,23.04
2023-01-10T15:17:28.783Z,23.04
2023-01-10T15:18:28.778Z,23.06
2023-01-10T15:19:28.798Z,23.08
2023-01-10T15:20:28.757Z,23.09
2023-01-10T15:21:28.746Z,23.09
2023-01-10T15:22:28.742Z,23.13
2023-01-10T15:23:28.741Z,23.13
2023-01-10T15:24:29.087Z,23.13
2023-01-10T15:25:29.734Z,23.11
2023-01-10T15:26:28.702Z,23.12
2023-01-10T15:27:28.702Z,23.12
2023-01-10T15:28:28.691Z,23.12
2023-01-10T15:29:28.668Z,23.13
2023-01-10T15:30:28.660Z,23.11
2023-01-10T15:31:28.730Z,23.12
2023-01-10T15:32:28.645Z,23.11
2023-01-10T15:33:28.641Z,23.11
2023-01-10T15:34:28.659Z,23.09
2023-01-10T15:35:36.047Z,23.11
2023-01-10T15:36:28.609Z,23.12
2023-01-10T15:37:28.598Z,23.06
2023-01-10T15:38:28.599Z,23.04
2023-01-10T15:39:28.588Z,23.05
2023-01-10T15:40:28.569Z,23.06
2023-01-10T15:41:28.560Z,23.05
2023-01-10T15:42:28.565Z,23.06
2023-01-10T15:43:28.581Z,23.04
2023-01-10T15:44:28.530Z,23.04
2023-01-10T15:45:28.532Z,23.06
2023-01-10T15:46:28.619Z,23.06
2023-01-10T15:47:28.511Z,23.06
2023-01-10T15:48:28.486Z,23.04
2023-01-10T15:49:28.488Z,23.05
2023-01-10T15:50:28.611Z,23.05
2023-01-10T15:51:28.486Z,23.06
2023-01-10T15:52:28.446Z,23.02
2023-01-10T15:53:28.480Z,23.06
2023-01-10T15:54:28.457Z,23.05
2023-01-10T15:55:28.429Z,23.05
2023-01-10T15:56:28.445Z,23.08
2023-01-10T15:57:28.417Z,23.08
2023-01-10T15:58:28.390Z,23.08
2023-01-10T15:59:28.387Z,23.12
2023-01-10T16:00:28.435Z,23.11
2023-01-10T16:01:29.250Z,23.12
2023-01-10T16:02:28.627Z,23.13
2023-01-10T16:03:28.493Z,23.12
2023-01-10T16:04:28.344Z,23.11
2023-01-10T16:05:28.327Z,23.12
2023-01-10T16:06:28.315Z,23.12
2023-01-10T16:07:28.620Z,23.16
2023-01-10T16:08:28.304Z,23.18
2023-01-10T16:09:28.289Z,23.18
2023-01-10T16:10:28.294Z,23.21
2023-01-10T16:11:28.268Z,23.19
2023-01-10T16:12:28.262Z,23.22
2023-01-10T16:13:28.541Z,23.23
2023-01-10T16:14:28.255Z,23.22
2023-01-10T16:15:28.231Z,23.21
2023-01-10T16:16:28.267Z,23.23
2023-01-10T16:17:28.212Z,23.22
2023-01-10T16:18:28.195Z,23.25
2023-01-10T16:19:28.206Z,23.25
2023-01-10T16:20:28.186Z,23.23
2023-01-10T16:21:28.181Z,23.23
2023-01-10T16:22:28.166Z,23.25
2023-01-10T16:23:28.184Z,23.25
2023-01-10T20:02:26.083Z,23.23
2023-01-10T20:03:26.051Z,23.22
2023-01-10T20:04:26.036Z,23.23
2023-01-10T20:05:26.038Z,23.23
2023-01-10T20:06:26.087Z,23.23
2023-01-10T20:07:26.032Z,23.21
2023-01-10T20:08:26.022Z,23.21
2023-01-10T20:09:25.989Z,23.25
2023-01-10T20:10:25.979Z,23.23
2023-01-10T20:11:25.973Z,23.22
2023-01-10T20:12:25.965Z,23.25
2023-01-10T20:13:25.954Z,23.25
2023-01-10T20:14:25.955Z,23.23
2023-01-10T20:15:25.936Z,23.23
2023-01-10T20:16:25.922Z,23.23
2023-01-10T20:17:25.927Z,23.22
2023-01-10T20:18:25.904Z,23.23
2023-01-10T20:19:25.893Z,23.23
2023-01-10T20:20:25.889Z,23.23
2023-01-10T20:21:25.883Z,23.23
2023-01-10T20:22:25.865Z,23.23
2023-01-10T20:23:25.877Z,23.25
2023-01-10T20:24:25.848Z,23.25
2023-01-10T20:25:25.840Z,23.23
2023-01-10T20:26:25.832Z,23.25
2023-01-10T20:27:25.821Z,23.23
2023-01-10T20:28:25.810Z,23.25
2023-01-10T20:29:25.800Z,23.22
2023-01-10T20:30:25.795Z,23.26
2023-01-10T20:31:25.838Z,23.25
2023-01-10T20:32:25.775Z,23.26
2023-01-10T20:33:25.768Z,23.25
2023-01-10T20:34:25.762Z,23.23
2023-01-10T20:35:25.768Z,23.25
2023-01-10T20:36:25.746Z,23.23
2023-01-10T20:37:25.727Z,23.25
2023-01-10T20:38:25.723Z,23.25
2023-01-10T20:39:25.754Z,23.25
2023-01-10T20:40:25.703Z,23.26
2023-01-10T20:41:25.688Z,23.26
2023-01-10T20:42:25.701Z,23.26
2023-01-10T20:43:25.683Z,23.26
2023-01-10T20:44:25.681Z,23.25
2023-01-10T20:45:25.653Z,23.22
2023-01-10T20:46:25.669Z,23.22
2023-01-10T20:47:25.640Z,23.26
2023-01-10T20:48:25.631Z,23.27
2023-01-10T20:49:25.617Z,23.23
2023-01-10T20:50:25.609Z,23.25
2023-01-10T20:51:25.607Z,23.22
2023-01-10T20:52:25.601Z,23.23
2023-01-10T20:53:25.591Z,23.25
2023-01-10T20:54:25.581Z,23.25
2023-01-10T20:55:25.592Z,23.21
2023-01-10T20:56:25.554Z,23.21
2023-01-10T20:57:25.540Z,23.19
2023-01-10T20:58:25.564Z,23.22
2023-01-10T20:59:26.178Z,23.19
2023-01-10T21:00:26.212Z,23.21
2023-01-10T21:01:34.246Z,23.19
2023-01-10T21:02:25.651Z,23.21
2023-01-10T21:03:25.487Z,23.21
2023-01-10T21:04:25.476Z,23.21
2023-01-10T21:05:25.470Z,23.19
2023-01-10T21:06:25.489Z,23.21
2023-01-10T21:07:25.446Z,23.19
2023-01-10T21:08:25.440Z,23.21
2023-01-10T21:09:25.436Z,23.22
2023-01-10T21:10:25.421Z,23.19
2023-01-10T21:11:25.446Z,23.21
2023-01-10T21:12:27.513Z,23.22
2023-01-10T21:13:25.397Z,23.19
2023-01-10T21:14:25.379Z,23.19
2023-01-10T21:15:25.373Z,23.18
2023-01-10T21:16:25.699Z,23.19
2023-01-10T21:17:25.350Z,23.19
2023-01-10T21:18:25.376Z,23.18
2023-01-10T21:19:25.344Z,23.18
2023-01-10T21:20:25.323Z,23.19
2023-01-10T21:21:25.315Z,23.19
2023-01-10T21:22:25.303Z,23.19
2023-01-10T21:23:25.321Z,23.19
2023-01-10T21:24:25.298Z,23.21
2023-01-10T21:25:25.279Z,23.19
2023-01-10T21:26:25.271Z,23.16
2023-01-10T21:27:25.281Z,23.19
2023-01-10T21:28:25.246Z,23.21
2023-01-10T21:29:25.236Z,23.21
2023-01-10T21:30:25.233Z,23.22
2023-01-10T21:31:25.270Z,23.22
2023-01-10T21:32:25.208Z,23.22
2023-01-10T21:33:25.202Z,23.19
2023-01-10T21:34:25.192Z,23.21
2023-01-10T21:35:25.193Z,23.19
2023-01-10T21:36:25.177Z,23.22
2023-01-10T21:37:25.172Z,23.21
2023-01-10T21:38:25.150Z,23.19
2023-01-10T21:39:25.163Z,23.21
2023-01-10T21:40:25.262Z,23.19
2023-01-10T21:41:25.142Z,23.21
2023-01-10T21:42:25.114Z,23.19
2023-01-10T21:43:25.130Z,23.21
2023-01-10T21:44:25.093Z,23.18
2023-01-10T21:45:25.156Z,23.22
2023-01-10T21:46:25.167Z,23.22
2023-01-10T21:47:25.065Z,23.21
2023-01-10T21:48:25.055Z,23.22
2023-01-10T21:49:25.051Z,23.21
2023-01-10T21:50:25.059Z,23.22
2023-01-10T21:51:25.033Z,23.22
2023-01-10T21:52:25.019Z,23.22
2023-01-10T21:53:25.009Z,23.22
2023-01-10T21:54:25.006Z,23.21
2023-01-10T21:55:24.991Z,23.21
2023-01-10T21:56:24.982Z,23.23
2023-01-10T21:57:24.979Z,23.22
2023-01-10T21:58:24.960Z,23.21
2023-01-10T21:59:24.978Z,23.21
2023-01-10T22:00:24.947Z,23.21
2023-01-10T22:01:24.947Z,23.21
2023-01-10T22:02:24.918Z,23.21
2023-01-10T22:03:24.991Z,23.22
2023-01-10T22:04:24.905Z,23.19
2023-01-10T22:05:24.904Z,23.21
2023-01-10T22:06:24.943Z,23.21
2023-01-10T22:07:24.910Z,23.21
2023-01-10T22:08:24.859Z,23.23
2023-01-10T22:09:24.858Z,23.22
2023-01-10T22:10:24.864Z,23.22
2023-01-10T22:11:24.851Z,23.21
2023-01-10T22:12:24.845Z,23.18
2023-01-10T22:13:24.823Z,23.21
2023-01-10T22:14:24.809Z,23.19
2023-01-10T22:15:24.838Z,23.19
2023-01-10T22:16:24.811Z,23.18
2023-01-10T22:17:24.778Z,23.18
2023-01-10T22:18:24.768Z,23.22
2023-01-10T22:19:24.768Z,23.19
2023-01-10T22:20:24.757Z,23.21
2023-01-10T22:21:24.763Z,23.22
2023-01-10T22:22:24.726Z,23.21
2023-01-10T22:23:24.734Z,23.21
2023-01-10T22:24:24.764Z,23.18
2023-01-10T22:25:24.705Z,23.21
2023-01-10T22:26:24.697Z,23.18
2023-01-10T22:27:24.685Z,23.19
2023-01-10T22:28:24.674Z,23.18
2023-01-10T22:29:24.668Z,23.18
2023-01-10T22:30:24.652Z,23.18
2023-01-10T22:31:24.699Z,23.16
2023-01-10T22:32:24.635Z,23.19
2023-01-10T22:33:24.634Z,23.18
2023-01-10T22:34:24.615Z,23.18
2023-01-10T22:35:24.608Z,23.19
2023-01-10T22:36:24.604Z,23.19
2023-01-10T22:37:24.586Z,23.18
2023-01-10T22:38:24.579Z,23.18
2023-01-10T22:39:24.566Z,23.19
2023-01-10T22:40:24.562Z,23.21
2023-01-10T22:41:24.549Z,23.21
2023-01-10T22:42:24.537Z,23.19
2023-01-10T22:43:24.528Z,23.22
2023-01-10T22:44:24.518Z,23.19
2023-01-10T22:45:24.509Z,23.21
2023-01-10T22:46:24.502Z,23.19
2023-01-10T22:47:24.518Z,23.22
2023-01-10T22:48:25.305Z,23.22
2023-01-10T22:49:24.485Z,23.22
2023-01-10T22:50:24.461Z,23.21